Time;durP1;ratioP1;P1;durP2;ratioP2;P2;SDS_P1;SDS_P2;PMS_P1;PMS_P2;Temp;Humidity;BMP_temperature;BMP_pressure;BME280_temperature;BME280_humidity;BME280_pressure;Samples;Min_cycle;Max_cycle;Signal;HPM_P1;HPM_P2
2021/11/22 00:01:19;;;;;;;6.30;1.40;;;6.70;99.90;;;;;;5146101;27;40216;-78
2021/11/22 00:03:46;;;;;;;6.47;1.17;;;6.70;99.90;;;;;;5160781;27;37552;-78
2021/11/22 00:06:12;;;;;;;11.57;1.67;;;6.70;99.90;;;;;;5131458;27;39527;-76
2021/11/22 00:08:38;;;;;;;7.73;1.80;;;6.70;99.90;;;;;;5139393;27;37928;-80
2021/11/22 00:11:04;;;;;;;10.00;1.80;;;6.60;99.90;;;;;;5137475;27;38912;-78
2021/11/22 00:13:30;;;;;;;5.70;1.40;;;6.60;99.90;;;;;;5137288;27;38466;-77
2021/11/22 00:15:57;;;;;;;3.97;1.17;;;6.60;99.90;;;;;;5132564;27;39939;-80
2021/11/22 00:18:24;;;;;;;5.40;1.57;;;6.60;99.90;;;;;;5137944;27;37425;-80
2021/11/22 00:20:51;;;;;;;11.53;1.43;;;6.60;99.90;;;;;;5141808;27;38509;-79
2021/11/22 00:23:17;;;;;;;10.17;1.60;;;6.60;99.90;;;;;;5139925;27;39153;-79
2021/11/22 00:25:43;;;;;;;8.23;1.27;;;6.70;99.90;;;;;;5134164;27;39494;-78
2021/11/22 00:28:10;;;;;;;8.90;2.23;;;6.60;99.90;;;;;;5130415;27;37844;-79
2021/11/22 00:30:36;;;;;;;5.13;1.73;;;6.60;99.90;;;;;;5132589;27;38366;-78
2021/11/22 00:33:03;;;;;;;6.10;1.30;;;6.60;99.90;;;;;;5136470;27;36899;-79
2021/11/22 00:35:35;;;;;;;12.00;1.20;;;6.60;99.90;;;;;;5137716;27;38502;-79
2021/11/22 00:38:04;;;;;;;10.63;2.15;;;6.60;99.90;;;;;;5134691;27;37262;-79
2021/11/22 00:40:33;;;;;;;10.27;1.57;;;6.50;99.90;;;;;;5156669;27;48587;-80
2021/11/22 00:42:59;;;;;;;4.47;1.20;;;6.50;99.90;;;;;;5156982;27;39019;-79
2021/11/22 00:45:27;;;;;;;12.70;2.53;;;6.50;99.90;;;;;;5156812;27;39301;-79
2021/11/22 00:47:54;;;;;;;6.83;1.20;;;6.50;99.90;;;;;;5156451;27;37727;-79
2021/11/22 00:50:21;;;;;;;9.40;1.90;;;6.50;99.90;;;;;;5159000;27;42208;-79
2021/11/22 00:52:47;;;;;;;6.27;1.83;;;6.50;99.90;;;;;;5157535;27;39016;-78
2021/11/22 00:55:13;;;;;;;3.67;1.27;;;6.50;99.90;;;;;;5157736;27;38351;-79
2021/11/22 00:57:39;;;;;;;7.33;1.30;;;6.40;99.90;;;;;;5157959;27;37699;-80
2021/11/22 01:00:09;;;;;;;7.50;1.33;;;6.50;99.90;;;;;;5157054;27;39228;-80
2021/11/22 01:02:36;;;;;;;10.90;1.40;;;6.50;99.90;;;;;;5128519;27;47570;-79
2021/11/22 01:05:04;;;;;;;5.63;1.20;;;6.50;99.90;;;;;;5136579;27;39901;-79
2021/11/22 01:07:30;;;;;;;5.73;1.20;;;6.50;99.90;;;;;;5159381;27;49004;-80
2021/11/22 01:09:57;;;;;;;8.97;1.67;;;6.40;99.90;;;;;;5159214;27;38557;-79
2021/11/22 01:12:28;;;;;;;8.50;1.80;;;6.40;99.90;;;;;;5132230;27;39162;-77
2021/11/22 01:15:07;;;;;;;10.77;1.50;;;6.50;99.90;;;;;;5156731;27;39298;-79
2021/11/22 01:17:33;;;;;;;5.13;1.43;;;6.50;99.90;;;;;;5153045;27;48579;-78
2021/11/22 01:19:59;;;;;;;8.57;1.47;;;6.40;99.90;;;;;;5135570;27;39650;-79
2021/11/22 01:22:26;;;;;;;13.33;1.73;;;6.30;99.90;;;;;;5155350;27;38842;-78
2021/11/22 01:24:52;;;;;;;8.40;1.10;;;6.20;99.90;;;;;;5135209;27;39521;-76
2021/11/22 01:27:18;;;;;;;5.40;1.13;;;6.20;99.90;;;;;;5133417;27;37707;-77
2021/11/22 01:29:44;;;;;;;10.97;1.33;;;6.00;99.90;;;;;;5132177;27;39769;-79
2021/11/22 01:32:11;;;;;;;8.27;1.10;;;6.00;99.90;;;;;;5132777;27;38938;-79
2021/11/22 01:34:37;;;;;;;4.47;1.10;;;5.90;99.90;;;;;;5158332;27;38059;-80
2021/11/22 01:37:03;;;;;;;3.73;1.00;;;5.90;99.90;;;;;;5158582;27;38432;-80
2021/11/22 01:39:29;;;;;;;14.87;2.67;;;5.90;99.90;;;;;;5136269;27;39618;-80
2021/11/22 01:41:56;;;;;;;6.13;1.30;;;5.90;99.90;;;;;;5138154;27;39654;-78
2021/11/22 01:44:22;;;;;;;7.63;1.30;;;5.90;99.90;;;;;;5155597;27;38268;-78
2021/11/22 01:46:49;;;;;;;10.30;1.60;;;5.80;99.90;;;;;;5133640;27;38742;-78
2021/11/22 01:49:20;;;;;;;6.33;1.60;;;5.80;99.90;;;;;;5132835;27;39567;-77
2021/11/22 01:51:46;;;;;;;13.50;2.03;;;5.80;99.90;;;;;;5157412;27;39805;-76
2021/11/22 01:54:13;;;;;;;9.23;1.50;;;5.80;99.90;;;;;;5157711;27;38941;-79
2021/11/22 01:56:39;;;;;;;10.13;1.47;;;5.70;99.90;;;;;;5131892;27;37727;-80
2021/11/22 01:59:06;;;;;;;7.17;1.53;;;5.60;99.90;;;;;;5148001;27;37354;-79
2021/11/22 02:01:32;;;;;;;7.13;1.37;;;5.50;99.90;;;;;;5123020;27;39377;-80
2021/11/22 02:03:58;;;;;;;3.47;1.10;;;5.50;99.90;;;;;;5117541;27;42069;-79
2021/11/22 02:06:24;;;;;;;10.43;1.57;;;5.50;99.90;;;;;;5125950;27;38432;-79
2021/11/22 02:08:50;;;;;;;8.37;1.63;;;5.60;99.90;;;;;;5148214;27;38715;-79
2021/11/22 02:11:17;;;;;;;9.33;1.50;;;5.60;99.90;;;;;;5127075;27;40381;-77
2021/11/22 02:13:44;;;;;;;6.57;1.90;;;5.50;99.90;;;;;;5121062;27;40529;-77
2021/11/22 02:16:10;;;;;;;7.80;1.70;;;5.60;99.90;;;;;;5139118;27;36155;-80
2021/11/22 02:18:36;;;;;;;7.20;1.50;;;5.60;99.90;;;;;;5131111;27;40155;-78
2021/11/22 02:21:03;;;;;;;8.77;1.50;;;5.60;99.90;;;;;;5129171;27;36880;-78
2021/11/22 02:23:29;;;;;;;9.00;1.93;;;5.60;99.90;;;;;;5111111;27;39819;-77
2021/11/22 02:25:55;;;;;;;12.10;1.60;;;5.60;99.90;;;;;;5134655;27;38162;-77
2021/11/22 02:28:21;;;;;;;7.27;1.50;;;5.60;99.90;;;;;;5127750;27;39718;-79
2021/11/22 02:30:49;;;;;;;12.63;2.37;;;5.50;99.90;;;;;;5124704;27;37782;-81
2021/11/22 02:33:23;;;;;;;7.00;1.57;;;5.60;99.90;;;;;;5135871;27;38495;-80
2021/11/22 02:35:55;;;;;;;12.60;1.37;;;5.70;99.90;;;;;;5145756;27;37213;-80
2021/11/22 02:38:24;;;;;;;6.60;1.67;;;5.70;99.90;;;;;;5136353;27;39769;-79
2021/11/22 02:40:50;;;;;;;4.83;1.40;;;5.70;99.90;;;;;;5140167;27;39820;-80
2021/11/22 02:43:17;;;;;;;9.43;1.80;;;5.60;99.90;;;;;;5134296;27;37511;-80
2021/11/22 02:45:43;;;;;;;4.40;1.47;;;5.60;99.90;;;;;;5135385;27;37749;-80
2021/11/22 02:48:09;;;;;;;7.57;1.60;;;5.50;99.90;;;;;;5140169;27;39815;-79
2021/11/22 02:50:36;;;;;;;8.27;1.57;;;5.50;99.90;;;;;;5132349;27;39465;-80
2021/11/22 02:53:03;;;;;;;11.13;3.50;;;5.50;99.90;;;;;;5134466;27;41498;-78
2021/11/22 02:55:29;;;;;;;10.20;1.60;;;5.50;99.90;;;;;;5141997;27;37815;-79
2021/11/22 02:57:55;;;;;;;9.57;1.80;;;5.50;99.90;;;;;;5136203;27;38512;-78
2021/11/22 03:00:28;;;;;;;8.87;2.13;;;5.40;99.90;;;;;;5142129;27;39165;-79
2021/11/22 03:02:55;;;;;;;10.43;1.33;;;5.40;99.90;;;;;;5123393;27;39758;-80
2021/11/22 03:05:22;;;;;;;6.97;2.03;;;5.30;99.90;;;;;;5143543;27;37245;-79
2021/11/22 03:07:50;;;;;;;7.97;2.07;;;5.30;99.90;;;;;;5120481;27;39535;-79
2021/11/22 03:10:19;;;;;;;12.50;1.80;;;5.30;99.90;;;;;;5135190;27;39470;-78
2021/11/22 03:12:46;;;;;;;5.33;1.40;;;5.20;99.90;;;;;;5143460;27;38583;-80
2021/11/22 03:15:14;;;;;;;6.67;1.47;;;5.20;99.90;;;;;;5138200;27;37354;-80
2021/11/22 03:17:42;;;;;;;9.23;1.77;;;5.20;99.90;;;;;;5124382;27;39567;-80
2021/11/22 03:20:13;;;;;;;14.73;1.67;;;5.10;99.90;;;;;;5137065;27;39255;-81
2021/11/22 03:22:40;;;;;;;10.83;1.43;;;5.10;99.90;;;;;;5135157;27;38913;-79
2021/11/22 03:25:09;;;;;;;8.63;1.47;;;5.10;99.90;;;;;;5129627;27;37154;-80
2021/11/22 03:27:36;;;;;;;14.93;1.60;;;5.10;99.90;;;;;;5133011;27;39872;-80
2021/11/22 03:30:04;;;;;;;11.70;1.73;;;5.10;99.90;;;;;;5134277;27;38549;-79
2021/11/22 03:32:30;;;;;;;7.20;1.30;;;5.10;99.90;;;;;;5132147;27;39399;-79
2021/11/22 03:34:57;;;;;;;10.60;1.57;;;5.20;99.90;;;;;;5132981;27;37944;-79
2021/11/22 03:37:24;;;;;;;8.40;1.50;;;5.20;99.90;;;;;;5132755;27;39118;-79
2021/11/22 03:39:52;;;;;;;9.97;1.33;;;5.30;99.90;;;;;;5135829;27;38687;-79
2021/11/22 03:42:22;;;;;;;10.67;1.50;;;5.40;99.90;;;;;;5129449;27;36760;-79
2021/11/22 03:44:48;;;;;;;5.17;1.93;;;5.40;99.90;;;;;;5137192;27;37830;-79
2021/11/22 03:47:15;;;;;;;8.10;1.40;;;5.40;99.90;;;;;;5133523;27;38928;-80
2021/11/22 03:49:41;;;;;;;12.93;1.53;;;5.50;99.90;;;;;;5118399;27;38968;-79
2021/11/22 03:52:09;;;;;;;8.57;1.43;;;5.50;99.90;;;;;;5134222;27;38737;-80
2021/11/22 03:54:37;;;;;;;7.43;1.23;;;5.50;99.90;;;;;;5138947;27;37110;-79
2021/11/22 03:57:04;;;;;;;8.43;1.13;;;5.50;99.90;;;;;;5132548;27;38893;-78
2021/11/22 03:59:30;;;;;;;9.43;1.63;;;5.40;99.90;;;;;;5134733;27;37943;-79
2021/11/22 04:01:56;;;;;;;11.93;1.50;;;5.40;99.90;;;;;;5136375;27;39894;-79
2021/11/22 04:04:22;;;;;;;8.63;1.67;;;5.40;99.90;;;;;;5125792;27;38477;-79
2021/11/22 04:06:48;;;;;;;7.00;1.47;;;5.40;99.90;;;;;;5128740;27;39471;-79
2021/11/22 04:09:14;;;;;;;8.33;1.30;;;5.40;99.90;;;;;;5139859;27;39799;-78
2021/11/22 04:11:40;;;;;;;9.30;1.60;;;5.40;99.90;;;;;;5136369;27;39827;-79
2021/11/22 04:14:07;;;;;;;11.70;1.37;;;5.40;99.90;;;;;;5123938;27;39326;-79
2021/11/22 04:16:33;;;;;;;7.73;1.27;;;5.40;99.90;;;;;;5121975;27;39504;-79
2021/11/22 04:19:00;;;;;;;9.73;1.87;;;5.40;99.90;;;;;;5137313;27;38554;-79
2021/11/22 04:21:26;;;;;;;8.20;2.40;;;5.40;99.90;;;;;;5121101;27;39052;-78
2021/11/22 04:23:54;;;;;;;8.23;1.33;;;5.40;99.90;;;;;;5138611;27;36761;-79
2021/11/22 04:26:20;;;;;;;11.07;1.60;;;5.30;99.90;;;;;;5126572;27;39732;-78
2021/11/22 04:28:47;;;;;;;7.80;1.40;;;5.30;99.90;;;;;;5130848;27;36441;-79
2021/11/22 04:31:14;;;;;;;6.47;1.43;;;5.20;99.90;;;;;;5121165;27;39680;-79
2021/11/22 04:33:40;;;;;;;9.87;1.50;;;5.10;99.90;;;;;;5135672;27;38005;-79
2021/11/22 04:36:07;;;;;;;6.00;1.27;;;5.00;99.90;;;;;;5143417;27;40186;-79
2021/11/22 04:38:34;;;;;;;10.87;1.70;;;5.10;99.90;;;;;;5123308;27;39500;-79
2021/11/22 04:41:00;;;;;;;10.47;1.80;;;5.10;99.90;;;;;;5134244;27;39082;-79
2021/11/22 04:43:27;;;;;;;7.03;1.37;;;5.10;99.90;;;;;;5152139;27;47864;-79
2021/11/22 04:45:53;;;;;;;8.83;1.20;;;5.10;99.90;;;;;;5119208;27;40662;-78
2021/11/22 04:48:19;;;;;;;7.73;1.60;;;5.10;99.90;;;;;;5138389;27;39304;-79
2021/11/22 04:50:47;;;;;;;9.17;1.50;;;5.00;99.90;;;;;;5136009;27;40911;-79
2021/11/22 04:53:13;;;;;;;7.27;1.87;;;5.00;99.90;;;;;;5131159;27;38060;-79
2021/11/22 04:55:39;;;;;;;9.63;2.30;;;5.00;99.90;;;;;;5130140;27;40098;-79
2021/11/22 04:58:07;;;;;;;6.93;1.63;;;5.00;99.90;;;;;;5122521;27;40588;-80
2021/11/22 05:00:36;;;;;;;8.63;1.73;;;4.90;99.90;;;;;;5111941;27;38725;-79
2021/11/22 05:03:04;;;;;;;6.57;1.50;;;4.90;99.90;;;;;;5111841;27;38839;-78
2021/11/22 05:05:31;;;;;;;10.57;1.53;;;4.90;99.90;;;;;;5133871;27;38815;-78
2021/11/22 05:07:57;;;;;;;6.53;1.47;;;4.80;99.90;;;;;;5130642;27;38903;-79
2021/11/22 05:10:28;;;;;;;5.80;1.60;;;4.90;99.90;;;;;;5120885;27;40444;-79
2021/11/22 05:12:55;;;;;;;17.40;1.80;;;4.90;99.90;;;;;;5137476;27;35318;-78
2021/11/22 05:15:21;;;;;;;5.07;2.20;;;4.80;99.90;;;;;;5129414;27;39244;-79
2021/11/22 05:17:47;;;;;;;12.23;2.87;;;4.70;99.90;;;;;;5131481;27;36090;-78
2021/11/22 05:20:13;;;;;;;7.77;1.73;;;4.70;99.90;;;;;;5131190;27;37426;-79
2021/11/22 05:22:39;;;;;;;11.97;1.17;;;4.70;99.90;;;;;;5139465;27;36932;-78
2021/11/22 05:25:06;;;;;;;3.43;1.17;;;4.70;99.90;;;;;;5130409;27;38860;-79
2021/11/22 05:27:32;;;;;;;8.30;1.37;;;4.60;99.90;;;;;;5131654;27;47018;-79
2021/11/22 05:29:58;;;;;;;5.30;1.20;;;4.60;99.90;;;;;;5137906;27;38147;-79
2021/11/22 05:32:25;;;;;;;6.47;1.40;;;4.60;99.90;;;;;;5129737;27;38528;-80
2021/11/22 05:34:54;;;;;;;5.50;1.20;;;4.60;99.90;;;;;;5126955;27;39594;-77
2021/11/22 05:37:21;;;;;;;13.10;1.43;;;4.50;99.90;;;;;;5150378;27;39546;-79
2021/11/22 05:39:48;;;;;;;7.03;1.30;;;4.60;99.90;;;;;;5134666;27;37489;-79
2021/11/22 05:42:16;;;;;;;8.37;2.30;;;4.60;99.90;;;;;;5136684;27;37563;-79
2021/11/22 05:44:43;;;;;;;6.20;1.23;;;4.60;99.90;;;;;;5141852;27;38916;-79
2021/11/22 05:47:11;;;;;;;8.40;1.23;;;4.60;99.90;;;;;;5127301;27;39763;-79
2021/11/22 05:49:38;;;;;;;11.67;1.50;;;4.60;99.90;;;;;;5139651;27;38289;-79
2021/11/22 05:52:06;;;;;;;6.27;1.30;;;4.60;99.90;;;;;;5127614;27;38944;-79
2021/11/22 05:54:33;;;;;;;11.67;1.60;;;4.60;99.90;;;;;;5136424;27;39379;-79
2021/11/22 05:57:00;;;;;;;6.97;1.50;;;4.60;99.90;;;;;;5117558;27;40396;-79
2021/11/22 05:59:27;;;;;;;6.77;1.50;;;4.60;99.90;;;;;;5123843;27;37792;-79
2021/11/22 06:01:54;;;;;;;6.90;1.63;;;4.60;99.90;;;;;;5137768;27;35636;-77
2021/11/22 06:04:20;;;;;;;7.67;1.43;;;4.50;99.90;;;;;;5141823;27;39900;-79
2021/11/22 06:06:46;;;;;;;8.37;1.50;;;4.50;99.90;;;;;;5151297;27;39762;-79
2021/11/22 06:09:12;;;;;;;9.03;1.50;;;4.50;99.90;;;;;;5127469;27;39261;-78
2021/11/22 06:11:38;;;;;;;4.93;1.30;;;4.50;99.90;;;;;;5133763;27;37934;-78
2021/11/22 06:14:04;;;;;;;9.20;1.90;;;4.50;99.90;;;;;;5139528;27;38900;-78
2021/11/22 06:16:31;;;;;;;10.10;2.07;;;4.40;99.90;;;;;;5129444;27;39056;-79
2021/11/22 06:18:58;;;;;;;11.20;1.20;;;4.30;99.90;;;;;;5143110;27;38125;-79
2021/11/22 06:21:24;;;;;;;7.57;2.00;;;4.30;99.90;;;;;;5140950;27;37829;-79
2021/11/22 06:23:51;;;;;;;8.57;1.70;;;4.30;99.90;;;;;;5138218;27;38738;-79
2021/11/22 06:26:17;;;;;;;7.03;1.37;;;4.30;99.90;;;;;;5138973;27;39774;-78
2021/11/22 06:28:43;;;;;;;7.87;1.83;;;4.30;99.90;;;;;;5133857;27;38307;-78
2021/11/22 06:31:10;;;;;;;10.03;1.50;;;4.30;99.90;;;;;;5141130;27;38820;-79
2021/11/22 06:33:36;;;;;;;8.23;1.37;;;4.30;99.90;;;;;;5123244;27;41017;-80
2021/11/22 06:36:03;;;;;;;9.20;2.17;;;4.20;99.90;;;;;;5123921;27;37724;-79
2021/11/22 06:38:29;;;;;;;8.80;1.70;;;4.10;99.90;;;;;;5142139;27;40467;-79
2021/11/22 06:40:55;;;;;;;3.77;1.47;;;4.10;99.90;;;;;;5145944;27;36963;-79
2021/11/22 06:43:21;;;;;;;9.10;1.90;;;4.10;99.90;;;;;;5143477;27;39168;-79
2021/11/22 06:45:47;;;;;;;8.17;1.70;;;4.10;99.90;;;;;;5139638;27;39302;-79
2021/11/22 06:48:13;;;;;;;6.87;2.03;;;4.00;99.90;;;;;;5138434;27;39235;-79
2021/11/22 06:50:39;;;;;;;9.87;1.80;;;4.00;99.90;;;;;;5135953;27;38674;-78
2021/11/22 06:53:06;;;;;;;12.57;1.57;;;4.00;99.90;;;;;;5130246;27;39503;-77
2021/11/22 06:55:32;;;;;;;5.27;1.30;;;4.00;99.90;;;;;;5127712;27;40725;-78
2021/11/22 06:57:58;;;;;;;11.87;2.03;;;3.90;99.90;;;;;;5136082;27;38461;-74
2021/11/22 07:00:24;;;;;;;9.70;3.20;;;3.90;99.90;;;;;;5130830;27;36108;-74
2021/11/22 07:02:51;;;;;;;8.10;2.07;;;3.90;99.90;;;;;;5129014;27;40212;-73
2021/11/22 07:05:19;;;;;;;6.37;2.10;;;3.80;99.90;;;;;;5157735;27;40511;-74
2021/11/22 07:07:46;;;;;;;13.37;2.57;;;3.90;99.90;;;;;;5134919;27;39530;-73
2021/11/22 07:10:13;;;;;;;4.63;1.70;;;4.00;99.90;;;;;;5135518;27;38362;-74
2021/11/22 07:12:39;;;;;;;5.27;1.80;;;4.10;99.90;;;;;;5135457;27;38098;-73
2021/11/22 07:15:06;;;;;;;7.90;2.20;;;4.10;99.90;;;;;;5134497;27;39883;-74
2021/11/22 07:17:32;;;;;;;6.03;1.90;;;4.10;99.90;;;;;;5135803;27;38146;-73
2021/11/22 07:19:58;;;;;;;8.50;2.23;;;4.10;99.90;;;;;;5126993;27;36392;-74
2021/11/22 07:22:25;;;;;;;8.47;2.17;;;4.10;99.90;;;;;;5124920;27;39372;-74
2021/11/22 07:24:52;;;;;;;12.43;2.90;;;4.20;99.90;;;;;;5122078;27;39071;-74
2021/11/22 07:27:24;;;;;;;8.07;2.40;;;4.20;99.90;;;;;;5128766;27;39178;-74
2021/11/22 07:29:50;;;;;;;7.65;2.15;;;4.20;99.90;;;;;;5137438;27;37096;-74
2021/11/22 07:32:16;;;;;;;8.40;2.27;;;4.20;99.90;;;;;;5132255;27;39957;-74
2021/11/22 07:34:42;;;;;;;8.13;2.10;;;4.10;99.90;;;;;;5136625;27;39561;-74
2021/11/22 07:37:09;;;;;;;7.97;2.20;;;4.10;99.90;;;;;;5128218;27;39117;-73
2021/11/22 07:39:36;;;;;;;6.73;1.90;;;4.10;99.90;;;;;;5131574;27;38113;-74
2021/11/22 07:42:02;;;;;;;5.07;2.10;;;4.10;99.90;;;;;;5134788;27;39547;-74
2021/11/22 07:44:28;;;;;;;12.23;2.57;;;4.10;99.90;;;;;;5114538;27;38920;-74
2021/11/22 07:46:59;;;;;;;10.47;2.63;;;4.10;99.90;;;;;;5139770;27;38246;-75
2021/11/22 07:49:26;;;;;;;4.83;1.83;;;4.00;99.90;;;;;;5137798;27;37908;-74
2021/11/22 07:51:52;;;;;;;13.03;3.63;;;4.00;99.90;;;;;;5129821;27;39353;-74
2021/11/22 07:54:18;;;;;;;8.03;2.57;;;4.10;99.90;;;;;;5134681;27;38638;-74
2021/11/22 07:56:45;;;;;;;9.60;2.27;;;4.30;99.90;;;;;;5126890;27;40456;-74
2021/11/22 07:59:11;;;;;;;8.50;2.93;;;4.30;99.90;;;;;;5128777;27;41253;-74
2021/11/22 08:01:37;;;;;;;11.67;2.43;;;4.30;99.90;;;;;;5125196;27;38732;-73
2021/11/22 08:04:04;;;;;;;10.03;2.60;;;4.30;99.90;;;;;;5137747;27;39490;-73
2021/11/22 08:06:30;;;;;;;8.50;2.70;;;4.30;99.90;;;;;;5132063;27;37850;-73
2021/11/22 08:08:57;;;;;;;12.07;2.87;;;4.30;99.90;;;;;;5135578;27;37196;-72
2021/11/22 08:13:51;;;;;;;8.53;2.70;;;4.40;99.90;;;;;;5132556;27;38801;-74
2021/11/22 08:16:17;;;;;;;9.33;2.73;;;4.40;99.90;;;;;;5136756;27;38356;-73
2021/11/22 08:18:43;;;;;;;7.87;2.50;;;4.40;99.90;;;;;;5133039;27;37842;-73
2021/11/22 08:21:11;;;;;;;13.07;3.13;;;4.50;99.90;;;;;;5131197;27;38954;-73
2021/11/22 08:23:38;;;;;;;7.77;3.00;;;4.60;99.90;;;;;;5134039;27;37994;-74
2021/11/22 08:26:06;;;;;;;12.33;3.20;;;4.60;99.90;;;;;;5126159;27;38328;-73
2021/11/22 08:28:33;;;;;;;6.60;2.17;;;4.60;99.90;;;;;;5128123;27;38239;-73
2021/11/22 08:31:00;;;;;;;8.20;2.43;;;4.70;99.90;;;;;;5118368;27;39501;-73
2021/11/22 08:33:26;;;;;;;11.87;2.70;;;4.70;99.90;;;;;;5135653;27;38832;-73
2021/11/22 08:35:52;;;;;;;8.77;2.63;;;4.70;99.90;;;;;;5123973;27;38916;-73
2021/11/22 08:38:19;;;;;;;11.80;3.13;;;4.70;99.90;;;;;;5127172;27;37624;-73
2021/11/22 08:40:46;;;;;;;14.07;3.37;;;4.80;99.90;;;;;;5126211;27;39102;-74
2021/11/22 08:43:14;;;;;;;13.10;3.10;;;4.90;99.90;;;;;;5138922;27;38917;-74
2021/11/22 08:45:44;;;;;;;11.30;2.80;;;4.90;99.90;;;;;;5133929;27;38581;-74
2021/11/22 08:48:11;;;;;;;12.07;3.60;;;5.00;99.90;;;;;;5138014;27;39055;-73
2021/11/22 08:50:37;;;;;;;10.23;3.60;;;5.10;99.90;;;;;;5124089;27;39677;-73
2021/11/22 08:53:04;;;;;;;8.63;3.47;;;5.30;99.90;;;;;;5120748;27;37447;-73
2021/11/22 08:55:30;;;;;;;8.73;3.13;;;5.30;99.90;;;;;;5122819;27;38286;-73
2021/11/22 08:57:56;;;;;;;13.33;3.40;;;5.50;99.90;;;;;;5126225;27;36298;-73
2021/11/22 09:00:28;;;;;;;9.40;3.23;;;5.50;99.90;;;;;;5140432;27;40348;-73
2021/11/22 09:02:55;;;;;;;8.15;2.92;;;5.50;99.90;;;;;;5150758;27;40279;-73
2021/11/22 09:05:21;;;;;;;8.40;3.00;;;5.60;99.90;;;;;;5154299;27;38608;-74
2021/11/22 09:07:47;;;;;;;10.17;3.20;;;5.60;99.90;;;;;;5135762;27;40040;-74
2021/11/22 09:10:14;;;;;;;11.13;2.97;;;5.70;99.90;;;;;;5134968;27;40082;-72
2021/11/22 09:12:40;;;;;;;11.30;3.13;;;5.70;99.90;;;;;;5138772;27;38794;-73
2021/11/22 09:15:07;;;;;;;9.20;2.67;;;5.80;99.90;;;;;;5144398;27;39265;-73
2021/11/22 09:17:33;;;;;;;8.63;2.30;;;5.90;99.90;;;;;;5132937;27;37271;-72
2021/11/22 09:19:59;;;;;;;7.17;2.27;;;6.00;99.90;;;;;;5137438;27;38735;-71
2021/11/22 09:22:25;;;;;;;11.07;2.33;;;6.10;99.90;;;;;;5141378;27;37748;-70
2021/11/22 09:24:51;;;;;;;12.23;2.30;;;6.20;99.90;;;;;;5135410;27;37627;-72
2021/11/22 09:27:18;;;;;;;7.73;2.07;;;6.30;99.90;;;;;;5136170;27;38312;-72
2021/11/22 09:29:44;;;;;;;7.40;1.60;;;6.50;99.90;;;;;;5139490;27;39420;-71
2021/11/22 09:32:10;;;;;;;10.70;1.93;;;6.50;99.90;;;;;;5156339;27;40064;-71
2021/11/22 09:34:37;;;;;;;5.47;1.13;;;6.50;99.90;;;;;;5131577;27;39853;-72
2021/11/22 09:37:03;;;;;;;9.57;1.40;;;6.80;99.90;;;;;;5156737;27;37100;-71
2021/11/22 09:39:30;;;;;;;8.60;1.93;;;6.80;99.90;;;;;;5135687;27;39540;-70
2021/11/22 09:41:56;;;;;;;7.27;1.43;;;6.90;99.90;;;;;;5135390;27;40164;-71
2021/11/22 09:44:23;;;;;;;6.77;1.57;;;7.00;99.90;;;;;;5160721;27;38917;-71
2021/11/22 09:46:52;;;;;;;6.37;1.17;;;7.00;99.90;;;;;;5163639;27;37168;-72
2021/11/22 09:49:18;;;;;;;7.77;1.47;;;7.00;99.90;;;;;;5136698;27;40512;-71
2021/11/22 09:51:44;;;;;;;4.67;1.60;;;7.10;99.90;;;;;;5156112;27;38910;-71
2021/11/22 09:54:11;;;;;;;7.00;1.30;;;7.10;99.90;;;;;;5136637;27;39736;-71
2021/11/22 09:56:38;;;;;;;8.80;1.60;;;7.20;99.90;;;;;;5151628;27;37887;-72
2021/11/22 09:59:05;;;;;;;10.00;1.57;;;7.20;99.90;;;;;;5144581;27;40740;-71
2021/11/22 10:01:34;;;;;;;6.73;1.33;;;7.30;99.90;;;;;;5135111;27;39180;-70
2021/11/22 10:04:07;;;;;;;4.40;1.10;;;7.30;99.90;;;;;;5138955;27;40212;-71
2021/11/22 10:06:55;;;;;;;18.80;1.50;;;7.20;99.90;;;;;;5133992;27;47100;-72
2021/11/22 10:09:38;;;;;;;7.23;2.10;;;7.30;99.90;;;;;;5158895;27;38423;-70
2021/11/22 10:12:04;;;;;;;6.80;1.60;;;7.30;99.90;;;;;;5150651;27;38732;-71
2021/11/22 10:14:44;;;;;;;4.20;0.93;;;7.30;99.90;;;;;;5160243;27;38276;-70
2021/11/22 10:17:22;;;;;;;5.70;1.47;;;7.40;99.90;;;;;;5139369;27;36038;-71
2021/11/22 10:20:12;;;;;;;5.70;1.17;;;7.50;99.90;;;;;;5157001;27;39690;-70
2021/11/22 10:22:51;;;;;;;5.63;1.03;;;7.50;99.90;;;;;;5135395;27;47179;-71
2021/11/22 10:25:19;;;;;;;6.77;1.67;;;7.70;99.90;;;;;;5133536;27;39795;-71
2021/11/22 10:27:46;;;;;;;7.43;0.90;;;7.80;99.90;;;;;;5136532;27;37574;-72
2021/11/22 10:30:27;;;;;;;6.03;1.20;;;7.80;99.90;;;;;;5153517;27;38844;-71
2021/11/22 10:33:01;;;;;;;11.03;1.33;;;7.90;99.90;;;;;;5156182;27;40521;-72
2021/11/22 10:35:31;;;;;;;5.40;1.43;;;8.00;99.90;;;;;;5160915;27;48752;-71
2021/11/22 10:38:12;;;;;;;3.30;1.03;;;8.00;99.90;;;;;;5137264;27;37304;-70
2021/11/22 10:40:40;;;;;;;3.77;0.90;;;8.00;99.90;;;;;;5138140;27;48802;-71
2021/11/22 10:43:07;;;;;;;4.03;0.60;;;8.10;99.90;;;;;;5151179;27;39778;-72
2021/11/22 10:45:46;;;;;;;5.13;0.80;;;8.20;99.90;;;;;;5141429;27;37627;-72
2021/11/22 10:50:54;;;;;;;2.80;1.17;;;8.10;99.90;;;;;;5164761;27;39684;-70
2021/11/22 10:53:30;;;;;;;4.27;0.80;;;8.20;99.90;;;;;;5169667;27;38209;-71
2021/11/22 10:55:56;;;;;;;4.40;0.80;;;8.30;99.90;;;;;;5134938;27;38558;-72
2021/11/22 10:58:51;;;;;;;4.77;1.17;;;8.40;99.90;;;;;;5149029;27;37653;-72
2021/11/22 11:01:29;;;;;;;6.50;1.10;;;8.40;99.90;;;;;;5129873;27;37816;-72
2021/11/22 11:04:16;;;;;;;4.47;0.73;;;8.50;99.90;;;;;;5146999;27;39493;-72
2021/11/22 11:06:49;;;;;;;3.20;1.10;;;8.50;99.90;;;;;;5164939;27;49044;-72
2021/11/22 11:09:30;;;;;;;8.33;1.17;;;8.40;99.90;;;;;;5159437;27;37978;-71
2021/11/22 11:12:10;;;;;;;3.23;0.87;;;8.50;99.90;;;;;;5165136;27;38514;-72
2021/11/22 11:14:41;;;;;;;10.13;0.90;;;8.50;99.90;;;;;;5146813;27;47490;-72
2021/11/22 11:17:18;;;;;;;4.37;1.27;;;8.50;99.90;;;;;;5135899;27;39083;-71
2021/11/22 11:19:46;;;;;;;4.73;0.97;;;8.60;99.90;;;;;;5133906;27;39087;-72
2021/11/22 11:22:13;;;;;;;6.20;1.10;;;8.70;99.90;;;;;;5136932;27;39761;-72
2021/11/22 11:24:39;;;;;;;3.80;0.90;;;8.60;99.90;;;;;;5137253;27;40255;-72
2021/11/22 11:27:06;;;;;;;5.27;1.00;;;8.70;99.90;;;;;;5143455;27;40359;-73
2021/11/22 11:29:33;;;;;;;3.00;0.70;;;8.80;99.90;;;;;;5156369;27;37192;-73
2021/11/22 11:31:59;;;;;;;7.73;1.27;;;8.80;99.90;;;;;;5154249;27;38455;-73
2021/11/22 11:34:31;;;;;;;6.63;1.00;;;8.80;99.90;;;;;;5137898;27;39412;-74
2021/11/22 11:37:24;;;;;;;3.53;0.70;;;8.90;99.90;;;;;;5135790;27;38702;-74
2021/11/22 11:40:06;;;;;;;9.38;1.05;;;8.80;99.90;;;;;;5150215;27;49028;-74
2021/11/22 11:43:00;;;;;;;2.97;0.87;;;8.90;99.90;;;;;;5130359;27;47272;-74
2021/11/22 11:45:53;;;;;;;4.40;1.00;;;9.00;99.90;;;;;;5160937;27;46529;-74
2021/11/22 11:48:51;;;;;;;8.25;0.85;;;9.20;99.90;;;;;;5139867;27;39431;-74
2021/11/22 11:51:20;;;;;;;3.73;0.87;;;9.20;99.90;;;;;;5120356;27;38077;-73
2021/11/22 11:54:04;;;;;;;5.20;1.00;;;9.20;99.90;;;;;;5141286;27;39498;-74
2021/11/22 11:56:44;;;;;;;3.53;0.87;;;9.30;99.90;;;;;;5130377;27;47488;-73
2021/11/22 11:59:26;;;;;;;8.67;1.10;;;9.30;99.90;;;;;;5134150;27;39089;-74
2021/11/22 12:02:00;;;;;;;5.33;1.10;;;9.30;99.90;;;;;;5136082;27;37312;-74
2021/11/22 12:04:29;;;;;;;2.27;0.80;;;9.30;99.90;;;;;;5134056;27;39160;-74
2021/11/22 12:07:00;;;;;;;6.53;1.20;;;9.40;99.90;;;;;;5137228;27;38845;-74
2021/11/22 12:09:34;;;;;;;4.60;0.83;;;9.50;99.90;;;;;;5135114;27;37904;-73
2021/11/22 12:12:01;;;;;;;7.00;1.40;;;9.50;99.90;;;;;;5135063;27;37467;-74
2021/11/22 12:15:00;;;;;;;2.00;1.00;;;9.50;99.90;;;;;;5137685;27;38022;-74
2021/11/22 12:17:35;;;;;;;5.53;1.40;;;9.60;99.90;;;;;;5151001;27;39560;-74
2021/11/22 12:20:06;;;;;;;3.83;0.93;;;9.70;99.90;;;;;;5131285;27;38422;-73
2021/11/22 12:22:41;;;;;;;6.40;1.00;;;9.70;99.90;;;;;;5133047;27;47371;-74
2021/11/22 12:25:09;;;;;;;6.30;1.20;;;9.70;99.90;;;;;;5134722;27;40003;-74
2021/11/22 12:27:38;;;;;;;9.60;1.27;;;9.70;99.90;;;;;;5139971;27;39133;-74
2021/11/22 12:30:29;;;;;;;8.20;1.60;;;9.70;99.90;;;;;;5155630;27;39399;-74
2021/11/22 12:33:19;;;;;;;4.20;1.23;;;9.70;99.90;;;;;;5135238;27;47043;-73
2021/11/22 12:35:52;;;;;;;4.77;0.97;;;9.70;99.90;;;;;;5132306;27;47424;-73
2021/11/22 12:38:25;;;;;;;3.77;1.33;;;9.70;99.90;;;;;;5135890;27;37847;-74
2021/11/22 12:40:53;;;;;;;;;;;9.80;99.90;;;;;;5130378;27;37332;-74
2021/11/22 12:43:42;;;;;;;4.93;1.03;;;9.80;99.90;;;;;;5134386;27;38076;-73
2021/11/22 12:46:11;;;;;;;8.93;1.30;;;9.80;99.90;;;;;;5159125;27;38853;-74
2021/11/22 12:48:41;;;;;;;7.33;1.40;;;9.70;99.90;;;;;;5160990;27;38853;-74
2021/11/22 12:51:10;;;;;;;3.10;1.00;;;9.70;99.90;;;;;;5135636;27;38081;-73
2021/11/22 12:53:40;;;;;;;6.80;1.27;;;9.70;99.90;;;;;;5138195;27;36170;-74
2021/11/22 12:56:09;;;;;;;5.27;1.03;;;9.60;99.90;;;;;;5157057;27;41159;-74
2021/11/22 12:58:35;;;;;;;5.13;1.00;;;9.60;99.90;;;;;;5165999;27;38875;-75
2021/11/22 13:01:04;;;;;;;4.97;0.70;;;9.60;99.90;;;;;;5154953;27;38565;-72
2021/11/22 13:03:31;;;;;;;3.13;0.83;;;9.60;99.90;;;;;;5154691;27;37285;-74
2021/11/22 13:06:02;;;;;;;4.43;1.13;;;9.60;99.90;;;;;;5136106;27;38226;-73
2021/11/22 13:08:39;;;;;;;5.93;0.90;;;9.60;99.90;;;;;;5133678;27;47014;-72